Time;durP1;ratioP1;P1;durP2;ratioP2;P2;SDS_P1;SDS_P2;PMS_P1;PMS_P2;Temp;Humidity;BMP_temperature;BMP_pressure;BME280_temperature;BME280_humidity;BME280_pressure;Samples;Min_cycle;Max_cycle;Signal;HPM_P1;HPM_P2
2024/03/02 00:00:27;;;;;;;1999.90;999.90;;;;;;;7.98;77.23;99759.47;10296463;28;20081;-66
2024/03/02 00:05:29;;;;;;;1999.90;999.90;;;;;;;8.09;76.93;99770.06;10280159;28;20047;-66
2024/03/02 00:10:40;;;;;;;1999.90;999.90;;;;;;;7.90;76.96;99770.38;10296970;28;20130;-66
2024/03/02 00:15:54;;;;;;;1999.90;999.90;;;;;;;8.06;77.52;99775.47;10295777;28;20047;-67
2024/03/02 00:20:57;;;;;;;1999.90;999.90;;;;;;;7.91;77.96;99774.66;10296803;28;20484;-66
2024/03/02 00:26:00;;;;;;;1999.90;999.90;;;;;;;7.94;77.30;99771.03;10295257;28;20078;-66
2024/03/02 00:31:02;;;;;;;1999.90;999.90;;;;;;;7.95;78.02;99767.47;10296219;28;20431;-66
2024/03/02 00:36:06;;;;;;;1999.90;999.90;;;;;;;7.97;77.40;99774.28;10296177;28;20061;-66
2024/03/02 00:41:17;;;;;;;1999.90;999.90;;;;;;;8.12;77.59;99769.88;10300347;28;20069;-66
2024/03/02 00:46:20;;;;;;;1999.90;999.90;;;;;;;8.36;76.11;99775.28;10294514;28;20482;-67
2024/03/02 00:51:25;;;;;;;1999.90;999.90;;;;;;;8.26;77.52;99783.81;10310721;28;20133;-66
2024/03/02 00:56:27;;;;;;;1999.90;999.90;;;;;;;7.99;77.69;99782.84;10294471;28;20498;-66
2024/03/02 01:01:30;;;;;;;1999.90;999.90;;;;;;;7.95;79.08;99807.44;10295254;28;20050;-66
2024/03/02 01:06:32;;;;;;;1999.90;999.90;;;;;;;8.12;78.77;99815.94;10294589;28;20051;-67
2024/03/02 01:11:35;;;;;;;1999.90;999.90;;;;;;;7.91;79.80;99838.97;10295026;28;20051;-67
2024/03/02 01:16:37;;;;;;;1999.90;999.90;;;;;;;8.53;78.09;99864.69;10294685;28;20126;-66
2024/03/02 01:21:40;;;;;;;1999.90;999.90;;;;;;;8.42;77.74;99880.97;10294589;28;20475;-66
2024/03/02 01:26:42;;;;;;;1999.90;999.90;;;;;;;8.25;79.85;99879.44;10294392;28;20061;-66
2024/03/02 01:31:45;;;;;;;1999.90;999.90;;;;;;;8.28;80.62;99889.66;10294051;28;20051;-67
2024/03/02 01:36:47;;;;;;;1999.90;999.90;;;;;;;8.37;80.96;99886.50;10294242;28;20043;-66
2024/03/02 01:41:49;;;;;;;1999.90;999.90;;;;;;;8.44;81.21;99886.13;10293563;28;20073;-67
2024/03/02 01:46:52;;;;;;;1999.90;999.90;;;;;;;8.41;82.53;99879.31;10293805;28;20082;-66
2024/03/02 01:51:55;;;;;;;1999.90;999.90;;;;;;;8.69;81.97;99881.06;10293772;28;20125;-67
2024/03/02 01:56:57;;;;;;;1999.90;999.90;;;;;;;8.38;83.25;99875.13;10293156;28;20130;-67
2024/03/02 02:02:00;;;;;;;1999.90;999.90;;;;;;;8.34;82.80;99867.59;10293432;28;20059;-67
2024/03/02 02:07:03;;;;;;;1999.90;999.90;;;;;;;8.42;83.06;99865.31;10292919;28;20047;-67
2024/03/02 02:12:06;;;;;;;1999.90;999.90;;;;;;;8.41;82.79;99868.06;10292887;28;20490;-66
2024/03/02 02:17:09;;;;;;;1999.90;999.90;;;;;;;8.66;81.63;99857.75;10293009;28;20050;-67
2024/03/02 02:22:11;;;;;;;1999.90;999.90;;;;;;;8.37;81.38;99850.00;10293063;28;20145;-67
2024/03/02 02:27:15;;;;;;;1999.90;999.90;;;;;;;8.36;81.58;99837.03;10292885;28;20047;-67
2024/03/02 02:32:17;;;;;;;1999.90;999.90;;;;;;;8.31;81.04;99832.09;10292639;28;20059;-67
2024/03/02 02:37:20;;;;;;;1999.90;999.90;;;;;;;8.35;82.25;99849.25;10292789;28;20070;-67
2024/03/02 02:42:22;;;;;;;1999.90;999.90;;;;;;;8.19;82.09;99849.38;10293031;28;20082;-67
2024/03/02 02:47:25;;;;;;;1999.90;999.90;;;;;;;8.32;81.35;99845.97;10292329;28;20042;-66
2024/03/02 02:52:36;;;;;;;1999.90;999.90;;;;;;;8.15;81.36;99852.25;10292555;28;20051;-66
2024/03/02 02:57:41;;;;;;;1999.90;999.90;;;;;;;8.04;83.61;99849.50;10292631;28;20546;-66
2024/03/02 03:02:47;;;;;;;1999.90;999.90;;;;;;;7.91;84.04;99852.00;10275530;28;20391;-67
2024/03/02 03:07:50;;;;;;;1999.90;999.90;;;;;;;8.14;83.10;99846.22;10275362;28;20405;-66
2024/03/02 03:12:53;;;;;;;1999.90;999.90;;;;;;;8.13;84.23;99844.53;10292153;28;20494;-66
2024/03/02 03:17:55;;;;;;;1999.90;999.90;;;;;;;8.03;84.12;99845.19;10294894;28;20403;-66
2024/03/02 03:22:58;;;;;;;1999.90;999.90;;;;;;;7.75;84.57;99846.88;10298989;28;20054;-67
2024/03/02 03:28:01;;;;;;;1999.90;999.90;;;;;;;7.95;84.28;99861.31;10298842;28;20133;-67
2024/03/02 03:33:05;;;;;;;1999.90;999.90;;;;;;;7.97;84.90;99869.91;10298754;28;20051;-67
2024/03/02 03:38:08;;;;;;;1999.90;999.90;;;;;;;7.84;86.56;99864.56;10298342;28;20466;-67
2024/03/02 03:43:10;;;;;;;1999.90;999.90;;;;;;;7.78;87.52;99875.38;10298395;28;20054;-67
2024/03/02 03:48:13;;;;;;;1999.90;999.90;;;;;;;7.46;88.15;99869.47;10297995;28;20447;-67
2024/03/02 03:53:15;;;;;;;1999.90;999.90;;;;;;;7.71;88.17;99877.50;10297828;28;20058;-67
2024/03/02 03:58:20;;;;;;;1999.90;999.90;;;;;;;7.80;86.61;99866.53;10297737;28;20043;-67
2024/03/02 04:03:25;;;;;;;1999.90;999.90;;;;;;;7.45;88.49;99873.88;10298043;28;20098;-67
2024/03/02 04:08:27;;;;;;;1999.90;999.90;;;;;;;7.63;88.86;99909.25;10297788;28;20079;-67
2024/03/02 04:13:30;;;;;;;1999.90;999.90;;;;;;;7.72;90.61;99907.03;10297206;28;20078;-67
2024/03/02 04:18:32;;;;;;;1999.90;999.90;;;;;;;7.63;90.39;99880.59;10296874;28;20130;-67
2024/03/02 04:23:35;;;;;;;1999.90;999.90;;;;;;;7.51;89.93;99868.28;10296523;28;20387;-67
2024/03/02 04:28:37;;;;;;;1999.90;999.90;;;;;;;7.66;89.89;99874.34;10295921;28;20054;-67
2024/03/02 04:33:39;;;;;;;1999.90;999.90;;;;;;;7.41;90.48;99887.97;10296430;28;20078;-67
2024/03/02 04:38:42;;;;;;;1999.90;999.90;;;;;;;7.49;91.04;99900.56;10296030;28;20062;-67
2024/03/02 04:43:44;;;;;;;1999.90;999.90;;;;;;;7.41;91.37;99891.44;10287779;28;20053;-67
2024/03/02 04:48:48;;;;;;;1999.90;999.90;;;;;;;7.34;90.90;99895.31;10295893;28;20125;-67
2024/03/02 04:53:51;;;;;;;1999.90;999.90;;;;;;;6.93;93.48;99897.72;10295312;28;20069;-67
2024/03/02 04:58:53;;;;;;;1999.90;999.90;;;;;;;7.36;92.12;99914.31;10295291;28;20490;-66
2024/03/02 05:03:56;;;;;;;1999.90;999.90;;;;;;;7.07;91.26;99921.16;10295141;28;20062;-67
2024/03/02 05:08:59;;;;;;;1999.90;999.90;;;;;;;7.12;91.54;99915.72;10294728;28;20070;-67
2024/03/02 05:14:01;;;;;;;1999.90;999.90;;;;;;;7.16;90.57;99912.84;10294602;28;20125;-66
2024/03/02 05:19:06;;;;;;;1999.90;999.90;;;;;;;7.26;90.21;99913.13;10294966;28;20047;-67
2024/03/02 05:24:08;;;;;;;1999.90;999.90;;;;;;;7.17;87.80;99918.88;10294418;28;20475;-67
2024/03/02 05:29:11;;;;;;;1999.90;999.90;;;;;;;7.26;88.85;99926.16;10294389;28;20070;-67
2024/03/02 05:34:14;;;;;;;1999.90;999.90;;;;;;;7.20;89.44;99922.16;10294112;28;20051;-67
2024/03/02 05:39:16;;;;;;;1999.90;999.90;;;;;;;7.28;89.59;99926.94;10293542;28;20454;-67
2024/03/02 05:44:19;;;;;;;1999.90;999.90;;;;;;;7.06;89.25;99928.16;10276843;28;20133;-66
2024/03/02 05:49:21;;;;;;;1999.90;999.90;;;;;;;6.92;90.07;99935.06;10293531;28;20047;-67
2024/03/02 05:54:24;;;;;;;1999.90;999.90;;;;;;;6.95;88.57;99934.88;10276367;28;20137;-67
2024/03/02 05:59:26;;;;;;;1999.90;999.90;;;;;;;7.13;87.83;99933.84;10276368;28;20059;-67
2024/03/02 06:04:29;;;;;;;1999.90;999.90;;;;;;;7.29;88.30;99931.19;10293237;28;20058;-67
2024/03/02 06:09:31;;;;;;;1999.90;999.90;;;;;;;7.25;87.38;99940.94;10293477;28;20057;-67
2024/03/02 06:14:34;;;;;;;1999.90;999.90;;;;;;;7.31;86.11;99947.56;10293734;28;20055;-67
2024/03/02 06:19:36;;;;;;;1999.90;999.90;;;;;;;7.06;86.47;99951.56;10292985;28;20549;-67
2024/03/02 06:24:38;;;;;;;1999.90;999.90;;;;;;;6.78;88.08;99970.47;10293192;28;20134;-67
2024/03/02 06:29:41;;;;;;;1999.90;999.90;;;;;;;6.82;88.99;99984.16;10275465;28;20450;-67
2024/03/02 06:34:44;;;;;;;1999.90;999.90;;;;;;;6.56;89.22;99978.63;10275641;28;20462;-67
2024/03/02 06:39:46;;;;;;;1999.90;999.90;;;;;;;6.56;90.43;99981.22;10292647;28;20082;-67
2024/03/02 06:44:49;;;;;;;1999.90;999.90;;;;;;;6.39;92.87;99989.06;10292518;28;20438;-67
2024/03/02 06:49:51;;;;;;;1999.90;999.90;;;;;;;6.41;94.57;99998.47;10292579;28;20130;-67
2024/03/02 06:54:54;;;;;;;1999.90;999.90;;;;;;;6.38;94.78;99998.63;10299134;28;20054;-67
2024/03/02 06:59:58;;;;;;;1999.90;999.90;;;;;;;6.64;91.60;99996.38;10282791;28;20051;-67
2024/03/02 07:05:01;;;;;;;1999.90;999.90;;;;;;;6.75;91.77;99995.84;10299754;28;20078;-67
2024/03/02 07:10:07;;;;;;;1999.90;999.90;;;;;;;6.92;90.05;100000.13;10299919;28;20047;-67
2024/03/02 07:15:39;;;;;;;1999.90;999.90;;;;;;;6.93;90.42;100009.59;10299130;28;20541;-67
2024/03/02 07:20:41;;;;;;;1999.90;999.90;;;;;;;7.44;87.22;100012.81;10299110;28;20050;-67
2024/03/02 07:25:43;;;;;;;1999.90;999.90;;;;;;;7.41;87.03;100011.25;10281890;28;20069;-67
2024/03/02 07:31:01;;;;;;;1999.90;999.90;;;;;;;7.37;87.15;100021.91;10298971;28;20053;-67
2024/03/02 07:36:05;;;;;;;1999.90;999.90;;;;;;;7.85;86.24;100019.16;10281516;28;20051;-67
2024/03/02 07:41:08;;;;;;;1999.90;999.90;;;;;;;8.33;85.19;100025.84;10299005;28;20129;-67
2024/03/02 07:46:11;;;;;;;1999.90;999.90;;;;;;;8.44;84.08;100021.78;10298759;28;20081;-67
2024/03/02 07:51:14;;;;;;;1999.90;999.90;;;;;;;8.96;82.25;100028.16;10298182;28;20050;-67
2024/03/02 07:56:22;;;;;;;1999.90;999.90;;;;;;;9.30;80.48;100032.09;10297740;28;20522;-67
2024/03/02 08:01:24;;;;;;;1999.90;999.90;;;;;;;8.87;80.61;100030.41;10297735;28;20431;-67
2024/03/02 08:06:27;;;;;;;1999.90;999.90;;;;;;;9.42;78.83;100033.06;10297585;28;20093;-68
2024/03/02 08:11:31;;;;;;;1999.90;999.90;;;;;;;10.48;77.22;100028.63;10280537;28;20051;-67
2024/03/02 08:16:34;;;;;;;1999.90;999.90;;;;;;;10.11;75.94;100040.75;10297129;28;20122;-67
2024/03/02 08:21:36;;;;;;;1999.90;999.90;;;;;;;10.20;74.83;100032.25;10296937;28;20105;-67
2024/03/02 08:26:39;;;;;;;1999.90;999.90;;;;;;;10.04;73.10;100038.53;10296722;28;20105;-67
2024/03/02 08:31:41;;;;;;;1999.90;999.90;;;;;;;10.49;72.99;100040.78;10279166;28;20490;-67
2024/03/02 08:36:44;;;;;;;1999.90;999.90;;;;;;;10.64;71.92;100040.66;10296476;28;20517;-67
2024/03/02 08:41:47;;;;;;;1999.90;999.90;;;;;;;11.59;71.92;100031.22;10295739;28;20069;-67
2024/03/02 08:46:49;;;;;;;1999.90;999.90;;;;;;;11.36;71.57;100046.00;10295614;28;20058;-67
2024/03/02 08:51:54;;;;;;;1999.90;999.90;;;;;;;11.46;68.66;100043.53;10295790;28;20470;-67
2024/03/02 08:56:57;;;;;;;1999.90;999.90;;;;;;;12.60;69.63;100032.38;10295330;28;20047;-67
2024/03/02 09:02:00;;;;;;;1999.90;999.90;;;;;;;12.00;67.35;100037.81;10295327;28;20194;-67
2024/03/02 09:07:02;;;;;;;1999.90;999.90;;;;;;;13.00;65.98;100056.34;10295912;28;20047;-67
2024/03/02 09:12:06;;;;;;;1999.90;999.90;;;;;;;13.83;64.13;100045.34;10295222;28;20058;-67
2024/03/02 09:17:10;;;;;;;1999.90;999.90;;;;;;;13.56;63.44;100044.88;10277009;28;20075;-67
2024/03/02 09:22:13;;;;;;;1999.90;999.90;;;;;;;13.19;64.63;100047.81;10294229;28;20426;-67
2024/03/02 09:27:15;;;;;;;1999.90;999.90;;;;;;;12.36;65.36;100043.00;10294748;28;20109;-67
2024/03/02 09:32:17;;;;;;;1999.90;999.90;;;;;;;12.45;65.61;100051.00;10294361;28;20054;-67
2024/03/02 09:37:20;;;;;;;1999.90;999.90;;;;;;;13.14;63.93;100055.25;10294644;28;20055;-67
2024/03/02 09:42:23;;;;;;;1999.90;999.90;;;;;;;11.88;63.91;100057.06;10277055;28;20489;-72
2024/03/02 09:47:26;;;;;;;1999.90;999.90;;;;;;;13.15;62.89;100049.03;10293872;28;20047;-72
2024/03/02 09:52:28;;;;;;;1999.90;999.90;;;;;;;14.08;61.94;100039.72;10294071;28;20055;-73
2024/03/02 09:57:31;;;;;;;1999.90;999.90;;;;;;;13.63;61.41;100039.13;10293855;28;20062;-73
2024/03/02 10:02:33;;;;;;;1999.90;999.90;;;;;;;14.78;59.71;100050.47;10276542;28;20051;-72
2024/03/02 10:07:35;;;;;;;1999.90;999.90;;;;;;;15.34;58.34;100035.06;10293482;28;20085;-72
2024/03/02 10:12:38;;;;;;;1999.90;999.90;;;;;;;14.63;58.00;100047.38;10276639;28;20047;-72
2024/03/02 10:17:40;;;;;;;1999.90;999.90;;;;;;;17.15;55.70;100038.53;10293165;28;20125;-72
2024/03/02 10:22:42;;;;;;;1999.90;999.90;;;;;;;18.48;54.02;100044.72;10292801;28;20383;-72
2024/03/02 10:27:45;;;;;;;1999.90;999.90;;;;;;;17.50;53.97;100031.59;10297841;28;20051;-73
2024/03/02 10:32:49;;;;;;;1999.90;999.90;;;;;;;17.77;52.32;100022.72;10283580;28;20131;-73
2024/03/02 10:37:53;;;;;;;1999.90;999.90;;;;;;;16.77;53.61;100021.03;10283719;28;20054;-72
2024/03/02 10:42:55;;;;;;;1999.90;999.90;;;;;;;18.73;50.63;100019.16;10300632;28;20057;-73
2024/03/02 10:47:58;;;;;;;1999.90;999.90;;;;;;;18.13;49.56;100012.06;10283147;28;20482;-73
2024/03/02 10:53:01;;;;;;;1999.90;999.90;;;;;;;19.94;49.16;99996.63;10296129;23;20463;-67
2024/03/02 10:58:06;;;;;;;1999.90;999.90;;;;;;;19.63;48.96;99993.81;10300494;28;20097;-67
2024/03/02 11:03:10;;;;;;;1999.90;999.90;;;;;;;17.91;48.83;100004.66;10299941;28;20051;-67
2024/03/02 11:08:16;;;;;;;1999.90;999.90;;;;;;;19.08;45.65;99993.44;10299619;28;20050;-67
2024/03/02 11:13:24;;;;;;;1999.90;999.90;;;;;;;22.41;45.03;100000.44;10282466;28;20061;-67
2024/03/02 11:18:27;;;;;;;1999.90;999.90;;;;;;;18.44;47.41;99992.19;10311631;28;20050;-67
2024/03/02 11:23:33;;;;;;;1999.90;999.90;;;;;;;20.50;43.15;99982.53;10297852;28;20059;-67
2024/03/02 11:28:39;;;;;;;1999.90;999.90;;;;;;;18.80;44.07;99990.19;10313662;28;20495;-67
2024/03/02 11:33:42;;;;;;;1999.90;999.90;;;;;;;19.22;44.79;99988.47;10336471;28;20057;-67
2024/03/02 11:38:47;;;;;;;1999.90;999.90;;;;;;;19.96;47.45;99980.53;10338529;28;20125;-68
2024/03/02 11:43:49;;;;;;;1999.90;999.90;;;;;;;20.20;40.97;99974.31;10338496;28;20050;-68
2024/03/02 11:48:52;;;;;;;1999.90;999.90;;;;;;;19.78;42.79;99978.06;10337350;28;20076;-67
2024/03/02 11:53:55;;;;;;;1999.90;999.90;;;;;;;20.03;43.37;99971.69;10336814;28;20054;-68
2024/03/02 11:58:57;;;;;;;1999.90;999.90;;;;;;;21.57;41.51;99958.78;10336700;28;20125;-67
2024/03/02 12:04:00;;;;;;;1999.90;999.90;;;;;;;20.64;42.44;99963.19;10337862;28;20078;-67
2024/03/02 12:09:03;;;;;;;1999.90;999.90;;;;;;;19.39;43.25;99955.66;10337411;28;20046;-66
2024/03/02 12:14:10;;;;;;;1999.90;999.90;;;;;;;20.51;41.61;99950.44;10320302;28;20056;-66
2024/03/02 12:19:12;;;;;;;1999.90;999.90;;;;;;;21.48;45.78;99952.66;10336498;28;20050;-66
2024/03/02 12:24:15;;;;;;;1999.90;999.90;;;;;;;19.72;44.12;99955.63;10337024;28;20417;-66
2024/03/02 12:29:20;;;;;;;1999.90;999.90;;;;;;;21.03;41.09;99940.19;10336801;28;20050;-68
2024/03/02 12:34:23;;;;;;;1999.90;999.90;;;;;;;21.22;40.19;99931.75;10335481;28;20056;-68
2024/03/02 12:39:27;;;;;;;1999.90;999.90;;;;;;;21.93;40.46;99925.28;10337200;28;20055;-68
2024/03/02 12:44:29;;;;;;;1999.90;999.90;;;;;;;21.25;41.21;99925.22;10319135;28;20060;-68
2024/03/02 12:49:32;;;;;;;1999.90;999.90;;;;;;;19.58;43.18;99919.94;10335550;28;20046;-68
2024/03/02 12:54:34;;;;;;;1999.90;999.90;;;;;;;18.47;45.27;99909.72;10335710;28;20082;-69
2024/03/02 12:59:37;;;;;;;1999.90;999.90;;;;;;;20.02;42.20;99900.13;10334362;28;20050;-68
2024/03/02 13:04:41;;;;;;;1999.90;999.90;;;;;;;19.09;42.65;99896.09;10335471;28;20054;-68
2024/03/02 13:09:45;;;;;;;1999.90;999.90;;;;;;;18.48;46.43;99903.44;10334183;28;20125;-68
2024/03/02 13:14:54;;;;;;;1999.90;999.90;;;;;;;18.65;45.53;99897.19;10492411;28;20788;-67
2024/03/02 13:19:58;;;;;;;1999.90;999.90;;;;;;;18.06;45.25;99894.50;10491802;28;20475;-67
2024/03/02 13:25:03;;;;;;;1999.90;999.90;;;;;;;20.67;42.74;99893.72;10490799;28;20052;-67
2024/03/02 13:30:08;;;;;;;1999.90;999.90;;;;;;;17.75;43.85;99883.53;10491592;28;20057;-67
2024/03/02 13:35:11;;;;;;;1999.90;999.90;;;;;;;18.26;45.58;99879.19;10491880;28;20056;-67
2024/03/02 13:40:17;;;;;;;1999.90;999.90;;;;;;;19.12;42.84;99875.38;10490016;28;20090;-67
2024/03/02 13:45:20;;;;;;;1999.90;999.90;;;;;;;19.22;44.00;99875.22;10490870;28;20053;-67
2024/03/02 13:50:22;;;;;;;1999.90;999.90;;;;;;;18.66;44.63;99880.28;10490716;28;20128;-67
2024/03/02 13:55:25;;;;;;;1999.90;999.90;;;;;;;17.91;44.77;99867.78;10490986;28;20048;-66
2024/03/02 14:00:28;;;;;;;1999.90;999.90;;;;;;;19.58;42.27;99856.22;10490573;28;20098;-66
2024/03/02 14:05:31;;;;;;;1999.90;999.90;;;;;;;19.58;42.66;99858.06;10489097;28;20068;-66
2024/03/02 15:04:03;;;;;;;;;;;;;;;23.12;35.56;99810.31;10661354;27;20414;-69
2024/03/02 15:09:06;;;;;;;1999.90;999.90;;;;;;;26.58;32.93;99808.03;10659567;27;20283;-69
2024/03/02 15:14:08;;;;;;;1999.90;999.90;;;;;;;22.14;38.05;99809.91;10660418;27;20043;-69
2024/03/02 15:19:11;;;;;;;1999.90;999.90;;;;;;;22.70;37.27;99812.78;10658939;27;20506;-68
2024/03/02 15:24:13;;;;;;;1999.90;999.90;;;;;;;18.91;43.67;99811.38;10660006;27;20043;-69
2024/03/02 15:29:15;;;;;;;1999.90;999.90;;;;;;;17.72;48.76;99799.13;10659622;27;20049;-65
2024/03/02 15:34:18;;;;;;;1999.90;999.90;;;;;;;16.70;50.75;99807.53;10658478;27;20043;-67
2024/03/02 15:39:20;;;;;;;1999.90;999.90;;;;;;;15.28;53.82;99808.81;10659344;27;20545;-66
2024/03/02 15:44:23;;;;;;;1999.90;999.90;;;;;;;18.91;47.55;99798.13;10659092;27;20538;-66
2024/03/02 15:49:26;;;;;;;1999.90;999.90;;;;;;;17.03;48.97;99812.28;10658924;27;20047;-66
2024/03/02 15:54:28;;;;;;;1999.90;999.90;;;;;;;16.86;50.49;99817.47;10659004;27;20051;-67
2024/03/02 15:59:31;;;;;;;1999.90;999.90;;;;;;;14.89;55.57;99807.06;10658096;27;20559;-66
2024/03/02 16:04:33;;;;;;;1999.90;999.90;;;;;;;15.22;55.96;99812.88;10632451;27;20130;-66
2024/03/02 16:09:35;;;;;;;1999.90;999.90;;;;;;;14.98;56.91;99810.69;10629661;27;20048;-66
2024/03/02 16:14:38;;;;;;;1999.90;999.90;;;;;;;14.79;56.79;99811.53;10629145;27;20151;-66
2024/03/02 16:19:40;;;;;;;1999.90;999.90;;;;;;;14.33;56.98;99813.81;10629158;27;20480;-65
2024/03/02 16:24:43;;;;;;;1999.90;999.90;;;;;;;14.54;58.41;99810.25;10628067;27;20047;-66
2024/03/02 16:29:47;;;;;;;1999.90;999.90;;;;;;;14.30;58.51;99801.75;10628455;27;20050;-67
2024/03/02 16:34:51;;;;;;;1999.90;999.90;;;;;;;13.83;59.30;99800.69;10628397;27;20418;-66
2024/03/02 16:39:55;;;;;;;1999.90;999.90;;;;;;;13.87;60.18;99799.44;10628054;27;20055;-65
2024/03/02 16:44:57;;;;;;;1999.90;999.90;;;;;;;13.74;60.36;99799.69;10628191;27;20050;-65
2024/03/02 16:50:00;;;;;;;1999.90;999.90;;;;;;;13.93;60.39;99794.47;10627643;27;20516;-65
2024/03/02 16:55:03;;;;;;;1999.90;999.90;;;;;;;13.57;60.52;99801.13;10626893;27;20051;-66
2024/03/02 17:00:07;;;;;;;1999.90;999.90;;;;;;;13.51;61.40;99794.59;10626204;27;20054;-65
2024/03/02 17:05:10;;;;;;;1999.90;999.90;;;;;;;13.55;61.29;99792.56;10627106;27;20157;-68
2024/03/02 17:10:12;;;;;;;1999.90;999.90;;;;;;;13.40;61.96;99801.72;10626127;27;20043;-66
2024/03/02 17:15:15;;;;;;;1999.90;999.90;;;;;;;13.33;62.59;99797.00;10626303;27;20051;-66
2024/03/02 17:20:17;;;;;;;1999.90;999.90;;;;;;;13.22;61.59;99812.00;10627090;27;20092;-66
2024/03/02 17:25:22;;;;;;;1999.90;999.90;;;;;;;12.92;62.80;99808.34;10626532;27;20047;-66
2024/03/02 17:30:25;;;;;;;1999.90;999.90;;;;;;;12.95;63.17;99819.41;10626064;27;20441;-67
2024/03/02 17:35:27;;;;;;;1999.90;999.90;;;;;;;13.04;63.41;99832.75;10626488;27;20050;-66
2024/03/02 17:40:30;;;;;;;1999.90;999.90;;;;;;;12.98;63.02;99834.94;10625780;27;20074;-67
2024/03/02 17:45:32;;;;;;;1999.90;999.90;;;;;;;12.73;64.04;99838.75;10625835;27;20057;-65
2024/03/02 17:50:35;;;;;;;1999.90;999.90;;;;;;;12.30;67.38;99839.56;10625265;27;20410;-65
2024/03/02 17:55:37;;;;;;;1999.90;999.90;;;;;;;12.68;65.96;99842.72;10625409;27;20054;-65
2024/03/02 18:00:43;;;;;;;1999.90;999.90;;;;;;;12.32;67.17;99842.06;10623883;27;20099;-65
2024/03/02 18:05:46;;;;;;;1999.90;999.90;;;;;;;12.60;65.34;99843.31;10625089;27;20051;-66
2024/03/02 18:10:48;;;;;;;1999.90;999.90;;;;;;;12.51;65.90;99849.31;10624855;27;20047;-65
2024/03/02 18:15:51;;;;;;;1999.90;999.90;;;;;;;12.55;64.41;99843.69;10624475;27;20043;-65
2024/03/02 18:20:53;;;;;;;1999.90;999.90;;;;;;;12.52;64.27;99836.06;10624542;27;20084;-65
2024/03/02 18:25:55;;;;;;;1999.90;999.90;;;;;;;12.42;64.01;99843.88;10624089;27;20055;-65
2024/03/02 18:30:59;;;;;;;1999.90;999.90;;;;;;;12.25;64.56;99844.34;10624084;27;20039;-66
2024/03/02 18:36:03;;;;;;;1999.90;999.90;;;;;;;12.17;65.07;99838.88;10624110;27;20552;-66
2024/03/02 18:41:06;;;;;;;1999.90;999.90;;;;;;;12.47;63.64;99840.03;10623741;27;20039;-66
2024/03/02 18:46:10;;;;;;;1999.90;999.90;;;;;;;12.39;63.78;99835.38;10623783;27;20053;-65
2024/03/02 18:51:13;;;;;;;1999.90;999.90;;;;;;;12.40;64.36;99837.88;10605294;28;20078;-65
2024/03/02 18:56:15;;;;;;;1999.90;999.90;;;;;;;12.46;63.72;99828.69;10623565;27;20506;-65
2024/03/02 19:01:18;;;;;;;1999.90;999.90;;;;;;;12.37;62.95;99832.91;10623235;28;20484;-65
2024/03/02 19:06:21;;;;;;;1999.90;999.90;;;;;;;12.45;63.98;99825.22;10623425;27;20411;-65
2024/03/02 19:11:23;;;;;;;1999.90;999.90;;;;;;;12.33;63.72;99822.75;10623451;27;20126;-65
2024/03/02 19:16:26;;;;;;;1999.90;999.90;;;;;;;12.27;63.39;99827.53;10621891;28;20484;-65
2024/03/02 19:21:28;;;;;;;1999.90;999.90;;;;;;;12.19;63.55;99832.56;10623196;27;20429;-65
2024/03/02 19:26:30;;;;;;;1999.90;999.90;;;;;;;12.39;63.31;99822.25;10623502;27;20070;-65
2024/03/02 19:31:33;;;;;;;1999.90;999.90;;;;;;;12.31;64.52;99814.19;10622498;28;20522;-65
2024/03/02 19:36:35;;;;;;;1999.90;999.90;;;;;;;12.23;64.02;99817.41;10624547;27;20126;-65
2024/03/02 19:41:38;;;;;;;1999.90;999.90;;;;;;;12.20;65.19;99818.47;10630878;27;20054;-65
2024/03/02 19:46:40;;;;;;;1999.90;999.90;;;;;;;12.15;65.76;99814.56;10630787;27;20142;-65
2024/03/02 19:51:43;;;;;;;1999.90;999.90;;;;;;;12.23;65.61;99812.97;10629961;27;20395;-64
2024/03/02 19:56:45;;;;;;;1999.90;999.90;;;;;;;11.99;67.18;99804.47;10630529;27;20130;-64
2024/03/02 20:01:48;;;;;;;1999.90;999.90;;;;;;;11.85;67.53;99800.25;10629611;27;20075;-65
2024/03/02 20:06:52;;;;;;;1999.90;999.90;;;;;;;11.64;68.16;99793.13;10629506;27;20415;-65
2024/03/02 20:11:57;;;;;;;1999.90;999.90;;;;;;;11.32;68.75;99785.13;10628188;27;20104;-65
2024/03/02 20:16:59;;;;;;;1999.90;999.90;;;;;;;11.21;69.25;99785.94;10627968;27;20050;-64
2024/03/02 20:22:02;;;;;;;1999.90;999.90;;;;;;;11.48;69.32;99782.13;10629808;27;20118;-64
2024/03/02 20:27:04;;;;;;;1999.90;999.90;;;;;;;11.09;70.15;99786.88;10627538;27;20047;-65
2024/03/02 20:32:07;;;;;;;1999.90;999.90;;;;;;;11.40;68.62;99789.75;10628730;27;20380;-65
2024/03/02 20:37:09;;;;;;;1999.90;999.90;;;;;;;11.37;67.73;99790.84;10628542;27;20536;-65
2024/03/02 20:42:13;;;;;;;1999.90;999.90;;;;;;;11.29;67.59;99790.59;10628926;27;20057;-64
2024/03/02 20:47:15;;;;;;;1999.90;999.90;;;;;;;11.23;67.57;99797.16;10628124;27;20125;-65
2024/03/02 20:52:17;;;;;;;1999.90;999.90;;;;;;;11.12;68.11;99807.59;10627709;27;20131;-64
2024/03/02 20:57:20;;;;;;;1999.90;999.90;;;;;;;11.04;68.68;99807.34;10627506;27;20507;-64
2024/03/02 21:02:22;;;;;;;1999.90;999.90;;;;;;;11.40;67.91;99808.97;10627083;27;20063;-64
2024/03/02 21:07:25;;;;;;;1999.90;999.90;;;;;;;11.26;67.72;99809.16;10627505;27;20043;-64
2024/03/02 21:12:27;;;;;;;1999.90;999.90;;;;;;;11.59;67.44;99815.41;10627001;27;20497;-65
2024/03/02 21:17:30;;;;;;;1999.90;999.90;;;;;;;11.77;66.17;99824.47;10627065;27;20047;-64
2024/03/02 21:22:32;;;;;;;1999.90;999.90;;;;;;;11.86;66.71;99826.34;10626801;27;20047;-64
2024/03/02 21:27:34;;;;;;;1999.90;999.90;;;;;;;11.70;67.12;99821.50;10626410;27;20054;-64
2024/03/02 21:32:37;;;;;;;1999.90;999.90;;;;;;;11.81;65.57;99823.25;10625931;27;20503;-64
2024/03/02 21:37:40;;;;;;;1999.90;999.90;;;;;;;11.96;65.64;99820.44;10626606;27;20472;-65
2024/03/02 21:42:42;;;;;;;1999.90;999.90;;;;;;;11.63;66.06;99825.53;10625660;27;20380;-64
2024/03/02 21:47:45;;;;;;;1999.90;999.90;;;;;;;11.71;65.08;99827.56;10625872;27;20070;-65
2024/03/02 21:52:49;;;;;;;1999.90;999.90;;;;;;;11.54;66.19;99831.47;10625479;27;20130;-65
2024/03/02 21:57:54;;;;;;;1999.90;999.90;;;;;;;11.20;67.24;99825.38;10625339;27;20130;-64
2024/03/02 22:02:56;;;;;;;1999.90;999.90;;;;;;;10.96;68.45;99828.84;10624429;27;20054;-64
2024/03/02 22:08:00;;;;;;;1999.90;999.90;;;;;;;10.46;71.28;99825.56;10625075;27;20051;-64
2024/03/02 22:13:03;;;;;;;1999.90;999.90;;;;;;;10.49;71.51;99826.19;10625443;27;20071;-64
2024/03/02 22:18:05;;;;;;;1999.90;999.90;;;;;;;10.57;72.50;99829.09;10624801;27;20043;-65
2024/03/02 22:23:08;;;;;;;1999.90;999.90;;;;;;;10.63;73.67;99822.56;10624200;27;20506;-65
2024/03/02 22:28:10;;;;;;;1999.90;999.90;;;;;;;10.75;72.10;99819.03;10624094;27;20673;-65
2024/03/02 22:33:13;;;;;;;1999.90;999.90;;;;;;;10.81;72.03;99812.50;10623951;27;20044;-64
2024/03/02 22:38:16;;;;;;;1999.90;999.90;;;;;;;11.13;70.85;99807.47;10622647;27;20055;-64
2024/03/02 22:43:18;;;;;;;1999.90;999.90;;;;;;;11.17;70.75;99800.22;10623843;27;20068;-65
2024/03/02 22:48:21;;;;;;;1999.90;999.90;;;;;;;11.07;71.36;99794.00;10623656;27;20055;-64
2024/03/02 22:53:23;;;;;;;1999.90;999.90;;;;;;;10.98;71.67;99798.16;10623605;28;20051;-63
2024/03/02 22:58:26;;;;;;;1999.90;999.90;;;;;;;11.21;71.28;99811.28;10624234;28;20051;-64
2024/03/02 23:03:29;;;;;;;1999.90;999.90;;;;;;;11.16;70.86;99809.03;10622955;27;20126;-64
2024/03/02 23:08:31;;;;;;;1999.90;999.90;;;;;;;11.18;70.54;99808.91;10623760;28;20130;-63